Latest Weather Observations for Low Rocky Point

IDT60801

Issued at 8:02 am EST Tuesday 27 September 2016 (issued every 30 minutes, with the page automatically refreshed every 10 minutes)

About weather observations | Map of weather stations | Latest weather observations for TAS | Other Formats
Station Details ID: 097080 Name: LOW ROCKY POINT Lat: -42.98 Lon: 145.50 Height: 34.0 m
Data from the previous 72 hours. | See also: Recent months at Low Rocky Point
Date/Time
EST
Temp
°C
App
Temp
°C
Dew
Point
°C
Rel
Hum
%
Delta-T
°C
Wind Press
QNH
hPa
Press
MSL
hPa
Rain since
9am
mm
Dir  Spd
km/h
Gust
km/h
Spd
kts
Gust
kts
27/08:00am 10.6 6.6 8.2 85 1.2 NNW 19 24 10 13 1007.7 1007.8 0.4
27/07:30am 8.6 4.3 6.9 89 0.8 N 19 22 10 12 1007.4 1007.5 0.4
27/07:00am 7.2 2.1 5.8 91 0.6 NNE 22 28 12 15 1007.1 1007.1 0.4
27/06:30am 6.1 0.4 4.9 92 0.5 NNE 24 28 13 15 1007.1 1007.2 0.4
27/06:00am 6.1 0.8 4.9 92 0.5 N 22 28 12 15 1007.1 1007.1 0.4
27/05:30am 6.0 0.7 5.1 94 0.4 NNE 22 26 12 14 1007.0 1007.1 0.4
27/05:00am 5.9 0.6 5.0 94 0.4 NNE 22 26 12 14 1006.9 1006.9 0.4
27/04:30am 5.8 0.5 4.9 94 0.4 NNE 22 26 12 14 1006.7 1006.8 0.4
27/04:00am 6.0 0.7 5.1 94 0.4 NNE 22 26 12 14 1006.7 1006.7 0.4
27/03:30am 6.1 1.2 5.2 94 0.4 NNE 20 24 11 13 1006.8 1006.9 0.4
27/03:00am 6.4 1.2 5.5 94 0.4 NNE 22 26 12 14 1006.9 1006.9 0.4
27/02:30am 6.4 1.2 5.5 94 0.4 NNE 22 26 12 14 1007.0 1007.1 0.4
27/02:00am 6.3 1.1 5.4 94 0.4 NNE 22 26 12 14 1007.2 1007.2 0.4
27/01:30am 6.3 1.1 5.4 94 0.4 NNE 22 26 12 14 1007.4 1007.5 0.4
27/01:00am 6.5 1.3 5.6 94 0.4 NNE 22 26 12 14 1007.6 1007.6 0.4
27/12:30am 6.6 1.4 5.7 94 0.4 NNE 22 26 12 14 1007.8 1007.9 0.4
27/12:00am 6.6 1.4 5.7 94 0.4 NNE 22 28 12 15 1007.9 1007.9 0.4
 
Date/Time
EST
Temp
°C
App
Temp
°C
Dew
Point
°C
Rel
Hum
%
Delta-T
°C
Wind Press
QNH
hPa
Press
MSL
hPa
Rain since
9am
mm
Dir  Spd
km/h
Gust
km/h
Spd
kts
Gust
kts
26/11:30pm 6.7 1.5 5.7 93 0.4 NNE 22 26 12 14 1008.1 1008.2 0.4
26/11:00pm 6.7 1.5 5.3 91 0.6 NNE 22 26 12 14 1008.3 1008.3 0.4
26/10:30pm 7.0 2.1 5.3 89 0.8 NNE 20 24 11 13 1008.5 1008.6 0.4
26/10:00pm 7.5 2.7 5.5 87 0.9 NNE 20 24 11 13 1008.7 1008.7 0.4
26/09:30pm 7.7 2.8 5.3 85 1.1 NNE 20 22 11 12 1008.8 1008.9 0.4
26/09:00pm 8.2 3.6 5.5 83 1.2 NE 19 20 10 11 1008.8 1008.8 0.4
26/08:30pm 8.2 3.5 5.1 81 1.4 NNE 19 20 10 11 1008.7 1008.8 0.4
26/08:00pm 8.6 4.3 5.2 79 1.5 NNE 17 20 9 11 1008.7 1008.7 0.4
26/07:30pm 9.4 6.0 5.8 78 1.6 N 13 15 7 8 1008.6 1008.7 0.4
26/07:00pm 10.9 6.6 7.0 77 1.9 NW 19 22 10 12 1008.5 1008.5 0.4
26/06:30pm 11.0 7.1 6.9 76 1.9 NW 17 20 9 11 1008.3 1008.4 0.4
26/06:00pm 11.3 7.0 6.8 74 2.1 NW 19 24 10 13 1008.3 1008.3 0.4
26/05:30pm 12.1 7.6 7.0 71 2.4 WNW 20 28 11 15 1008.0 1008.1 0.4
26/05:00pm 12.5 7.3 7.2 70 2.6 WNW 24 28 13 15 1007.7 1007.7 0.4
26/04:30pm 13.2 8.5 7.9 70 2.6 WNW 22 26 12 14 1007.7 1007.8 0.4
26/04:00pm 13.5 8.7 7.5 67 3.0 NW 22 28 12 15 1007.6 1007.6 0.4
26/03:30pm 13.5 8.9 8.1 70 2.7 NW 22 28 12 15 1007.7 1007.8 0.4
26/03:00pm 13.7 9.0 7.9 68 2.9 NW 22 28 12 15 1007.8 1007.8 0.4
26/02:30pm 13.8 8.4 8.2 69 2.8 NW 26 32 14 17 1007.8 1007.9 0.4
26/02:00pm 13.7 7.9 8.1 69 2.8 NW 28 33 15 18 1008.1 1008.1 0.4
26/01:30pm 13.7 7.2 8.3 70 2.7 NW 32 39 17 21 1008.1 1008.2 0.4
26/01:00pm 12.8 6.0 7.9 72 2.4 NW 33 41 18 22 1008.4 1008.4 0.4
26/12:30pm 13.5 6.5 8.6 72 2.5 NW 35 44 19 24 1008.6 1008.7 0.4
26/12:00pm 13.2 6.5 8.3 72 2.4 NW 33 39 18 21 1008.9 1008.9 0.4
26/11:30am 12.8 8.3 10.0 83 1.4 NW 24 35 13 19 1009.1 1009.2 0.4
26/11:00am 10.4 4.7 8.2 86 1.1 NW 28 39 15 21 1009.4 1009.4 0.2
26/10:30am 10.2 6.1 7.8 85 1.2 NW 19 24 10 13 1009.6 1009.7 0.2
26/10:00am 11.4 6.0 6.5 72 2.3 NNW 24 33 13 18 1009.6 1009.6 0.0
26/09:30am 11.6 7.4 8.3 80 1.6 NNW 20 32 11 17 1009.7 1009.8 0.0
26/09:00am 9.7 5.9 7.5 86 1.1 NNW 17 24 9 13 1009.9 1009.9 0.6
26/08:30am 10.8 7.0 7.7 81 1.5 NNW 17 24 9 13 1010.0 1010.1 0.4
26/08:00am 9.0 4.0 6.3 83 1.2 NNW 22 32 12 17 1010.0 1010.0 0.4
26/07:30am 8.8 3.8 6.6 86 1.0 N 22 30 12 16 1009.8 1009.9 0.4
26/07:00am 7.3 2.5 5.4 88 0.8 N 20 28 11 15 1010.0 1010.0 0.4
26/06:30am 6.3 1.3 4.6 89 0.7 NNE 20 24 11 13 1010.0 1010.1 0.4
26/06:00am 6.2 1.2 4.4 88 0.8 NNE 20 26 11 14 1009.8 1009.8 0.4
26/05:30am 6.7 1.7 4.5 86 1.0 NNE 20 24 11 13 1009.8 1009.9 0.4
26/05:00am 6.9 1.9 4.6 85 1.0 NNE 20 24 11 13 1009.8 1009.8 0.4
26/04:30am 6.9 2.4 4.4 84 1.1 N 17 20 9 11 1009.8 1009.9 0.4
26/04:00am 7.1 2.3 4.4 83 1.2 N 19 22 10 12 1009.8 1009.8 0.4
26/03:30am 7.0 2.1 4.0 81 1.3 NNE 19 22 10 12 1009.8 1009.9 0.4
26/03:00am 7.8 3.0 4.4 79 1.5 NNE 19 22 10 12 1009.8 1009.8 0.4
26/02:30am 8.2 3.4 4.6 78 1.6 N 19 20 10 11 1010.0 1010.1 0.4
26/02:00am 8.7 4.3 4.5 75 1.9 N 17 22 9 12 1010.2 1010.2 0.4
26/01:30am 9.3 4.5 5.7 78 1.6 NNW 20 26 11 14 1010.4 1010.5 0.4
26/01:00am 8.3 3.9 4.5 77 1.7 N 17 20 9 11 1010.6 1010.6 0.4
26/12:30am 9.2 4.8 4.6 73 2.0 N 17 26 9 14 1010.5 1010.6 0.4
26/12:00am 10.2 3.1 5.6 73 2.1 NNW 32 37 17 20 1010.5 1010.5 0.4
 
Date/Time
EST
Temp
°C
App
Temp
°C
Dew
Point
°C
Rel
Hum
%
Delta-T
°C
Wind Press
QNH
hPa
Press
MSL
hPa
Rain since
9am
mm
Dir  Spd
km/h
Gust
km/h
Spd
kts
Gust
kts
25/11:30pm 10.3 3.5 5.3 71 2.3 NW 30 39 16 21 1010.6 1010.7 0.4
25/11:00pm 10.5 4.7 4.6 67 2.7 WNW 24 32 13 17 1010.7 1010.7 0.4
25/10:30pm 10.5 3.5 4.2 65 2.8 WNW 30 37 16 20 1010.8 1010.9 0.4
25/10:00pm 10.3 2.9 4.0 65 2.8 WNW 32 39 17 21 1010.8 1010.8 0.4
25/09:30pm 10.3 3.1 4.9 69 2.4 WNW 32 39 17 21 1010.6 1010.7 0.4
25/09:00pm 10.3 3.5 4.9 69 2.4 WNW 30 37 16 20 1010.3 1010.3 0.4
25/08:30pm 10.5 4.0 6.3 75 2.0 WNW 30 35 16 19 1010.2 1010.3 0.4
25/08:00pm 10.3 4.9 6.3 76 1.9 W 24 32 13 17 1010.0 1010.0 0.4
25/07:30pm 10.5 3.6 6.3 75 2.0 WNW 32 43 17 23 1009.7 1009.8 0.4
25/07:00pm 10.3 3.3 5.9 74 2.0 WNW 32 37 17 20 1009.4 1009.4 0.4
25/06:30pm 10.4 3.4 5.8 73 2.1 WNW 32 35 17 19 1008.9 1009.0 0.4
25/06:00pm 10.4 2.6 5.0 69 2.5 WNW 35 41 19 22 1008.7 1008.7 0.4
25/05:30pm 10.9 3.9 6.1 72 2.2 WNW 32 39 17 21 1008.4 1008.5 0.4
25/05:00pm 11.3 3.4 4.3 62 3.2 WNW 35 43 19 23 1008.2 1008.2 0.4
25/04:30pm 11.8 4.1 5.2 64 3.0 WNW 35 43 19 23 1008.0 1008.1 0.4
25/04:00pm 12.0 4.4 5.6 65 3.0 WNW 35 41 19 22 1007.8 1007.8 0.4
25/03:30pm 11.8 4.2 5.7 66 2.8 WNW 35 43 19 23 1007.6 1007.7 0.4
25/03:00pm 12.0 4.2 5.0 62 3.2 WNW 35 46 19 25 1007.4 1007.4 0.4
25/02:30pm 12.7 5.2 6.1 64 3.1 WNW 35 43 19 23 1007.2 1007.3 0.4
25/02:00pm 12.5 5.6 6.5 67 2.9 WNW 32 39 17 21 1007.0 1007.0 0.4
25/01:30pm 12.3 5.2 6.6 68 2.7 WNW 33 43 18 23 1006.8 1006.9 0.4
25/01:00pm 12.0 4.7 7.1 72 2.4 WNW 35 43 19 23 1006.8 1006.8 0.4
25/12:30pm 11.4 4.9 8.1 80 1.6 NW 32 46 17 25 1006.7 1006.8 0.4
25/12:00pm 10.6 5.4 7.3 80 1.6 WNW 24 30 13 16 1006.6 1006.6 0.4
25/11:52am 8.7 1.9 5.1 78 1.6 WNW 30 48 16 26 1006.6 1006.7 0.4
25/11:30am 12.5 5.7 7.0 69 2.6 WNW 32 43 17 23 1006.4 1006.5 0.0
25/11:00am 12.0 5.1 7.3 73 2.3 WNW 33 39 18 21 1006.2 1006.2 0.0
25/10:30am 11.8 4.9 6.3 69 2.6 WNW 32 39 17 21 1005.9 1006.0 0.0
25/10:00am 12.2 5.9 7.5 73 2.3 WNW 30 35 16 19 1005.7 1005.7 0.0
25/09:30am 11.9 6.8 7.8 76 2.0 W 24 30 13 16 1005.5 1005.6 0.0
25/09:00am 10.9 4.1 7.0 77 1.9 W 32 41 17 22 1005.2 1005.2 5.8
25/08:30am 10.8 3.1 6.9 77 1.9 W 37 46 20 25 1004.8 1004.8 5.8
25/08:00am 10.2 2.7 6.4 77 1.8 WNW 35 48 19 26 1004.5 1004.5 5.8
25/07:59am 10.2 2.3 6.4 77 1.8 WNW 37 56 20 30 1004.5 1004.5 5.8
25/07:30am 10.4 2.7 7.1 80 1.6 W 37 44 20 24 1004.0 1004.0 5.8
25/07:00am 10.2 2.6 7.6 84 1.3 W 37 46 20 25 1003.6 1003.6 5.8
25/06:30am 10.1 3.0 8.0 87 1.0 W 35 44 19 24 1003.3 1003.3 5.8
25/06:00am 10.1 3.1 8.4 89 0.8 W 35 43 19 23 1002.9 1002.9 5.8
25/05:30am 10.2 3.2 8.5 89 0.8 W 35 44 19 24 1002.5 1002.5 5.6
25/05:00am 10.5 2.6 9.4 93 0.6 W 41 50 22 27 1002.1 1002.1 5.6
25/04:30am 10.5 2.2 9.9 96 0.3 W 44 52 24 28 1001.6 1001.6 5.6
25/04:00am 10.5 1.5 10.3 99 0.1 W 48 61 26 33 1000.7 1000.7 5.6
25/03:30am 10.2 0.8 10.1 99 0.1 W 50 65 27 35 999.9 999.9 5.6
25/03:27am 10.6 1.3 10.4 99 0.1 W 50 65 27 35 999.8 999.8 5.6
25/03:01am 11.2 4.9 11.0 99 0.1 NW 35 46 19 25 999.5 999.5 5.2
25/03:00am 11.3 5.0 11.1 99 0.1 NW 35 44 19 24 999.5 999.5 5.0
25/02:36am 11.3 6.7 11.1 99 0.1 N 26 46 14 25 999.4 999.4 2.6
25/02:30am 11.1 7.6 10.9 99 0.1 N 20 28 11 15 999.0 999.0 2.4
25/02:00am 11.1 6.5 10.9 99 0.1 N 26 37 14 20 999.5 999.5 2.0
25/01:30am 11.1 6.8 10.8 98 0.2 N 24 35 13 19 999.7 999.7 1.6
25/01:00am 10.7 7.0 10.1 96 0.3 NNE 20 30 11 16 1000.0 1000.0 1.2
25/12:30am 10.9 6.7 9.8 93 0.6 N 22 30 12 16 1000.4 1000.4 0.8
25/12:00am 10.8 6.3 8.7 87 1.0 N 22 28 12 15 1000.8 1000.8 0.6
 
Date/Time
EST
Temp
°C
App
Temp
°C
Dew
Point
°C
Rel
Hum
%
Delta-T
°C
Wind Press
QNH
hPa
Press
MSL
hPa
Rain since
9am
mm
Dir  Spd
km/h
Gust
km/h
Spd
kts
Gust
kts
24/11:30pm 11.3 6.4 8.3 82 1.5 N 24 33 13 18 1001.0 1001.0 0.0
24/11:00pm 13.2 8.0 8.9 75 2.2 N 26 35 14 19 1001.3 1001.3 0.0
24/10:30pm 13.6 8.8 8.7 72 2.5 N 24 33 13 18 1001.4 1001.4 0.0
24/10:00pm 13.0 9.0 9.1 77 2.0 NNE 20 35 11 19 1001.6 1001.6 0.0
24/09:30pm 12.3 8.5 9.1 81 1.6 NNE 19 22 10 12 1001.9 1001.9 0.0
24/09:00pm 12.6 8.9 10.0 84 1.3 NNE 20 24 11 13 1002.2 1002.2 0.0
24/08:30pm 12.3 9.6 10.5 89 0.9 NNE 15 19 8 10 1002.4 1002.4 0.0
24/08:00pm 12.1 9.4 10.3 89 0.9 NE 15 19 8 10 1002.5 1002.5 0.0
24/07:30pm 11.8 9.0 10.0 89 0.9 ENE 15 19 8 10 1002.5 1002.5 0.0
24/07:00pm 11.7 8.4 9.6 87 1.1 ENE 17 20 9 11 1002.5 1002.5 0.0
24/06:30pm 12.2 9.8 9.9 86 1.2 N 13 17 7 9 1002.5 1002.5 0.0
24/06:00pm 12.7 10.7 10.1 84 1.3 N 11 15 6 8 1003.0 1003.0 0.0
24/05:30pm 13.5 11.9 10.3 81 1.7 NW 9 15 5 8 1003.0 1003.0 0.0
24/05:00pm 14.4 13.0 11.0 80 1.8 NNW 9 19 5 10 1003.1 1003.1 0.0
24/04:30pm 15.1 12.3 11.5 79 1.9 NW 17 20 9 11 1003.2 1003.2 0.0
24/04:00pm 15.8 13.3 12.2 79 2.0 NW 17 20 9 11 1003.3 1003.3 0.0
24/03:30pm 15.8 12.6 12.0 78 2.1 NW 20 26 11 14 1003.3 1003.3 0.0
24/03:00pm 16.1 12.6 12.1 77 2.2 WNW 22 28 12 15 1003.4 1003.4 0.0
24/02:30pm 16.6 14.4 12.2 75 2.4 WNW 15 19 8 10 1003.7 1003.7 0.0
24/02:00pm 15.3 12.7 10.7 74 2.4 WNW 15 17 8 9 1003.7 1003.7 0.0
24/01:30pm 16.3 14.5 10.8 70 2.9 W 11 13 6 7 1004.3 1004.3 0.0
24/01:00pm 15.4 13.3 9.7 69 3.0 W 11 15 6 8 1004.6 1004.6 0.0
24/12:30pm 16.0 13.3 10.3 69 3.0 W 15 17 8 9 1005.3 1005.4 0.0
24/12:00pm 15.4 13.0 10.0 70 2.8 W 13 17 7 9 1005.6 1005.6 0.0
24/11:30am 15.7 12.8 9.8 68 3.1 W 15 19 8 10 1005.7 1005.8 0.0
24/11:00am 18.9 16.5 10.2 57 4.7 NW 13 20 7 11 1005.9 1005.9 0.0
24/10:30am 17.5 14.7 10.1 62 3.9 NNE 15 22 8 12 1006.3 1006.4 0.0
24/10:00am 16.7 13.3 11.4 71 2.9 NE 20 28 11 15 1006.9 1006.9 0.0
24/09:30am 15.2 11.6 10.0 71 2.7 NE 19 28 10 15 1007.4 1007.5 0.0
24/09:00am 14.1 10.9 11.1 82 1.6 NE 19 24 10 13 1008.0 1008.0 0.0
24/08:30am 12.8 10.3 11.0 89 0.9 NE 15 22 8 12 1008.4 1008.5 0.0

Other Formats:

Comma delimited format used in spreadsheet applications
http://www.bom.gov.au/fwo/IDT60801/IDT60801.95961.axf

JavaScript Object Notation format (JSON) in row-major order
http://www.bom.gov.au/fwo/IDT60801/IDT60801.95961.json